Time;durP1;ratioP1;P1;durP2;ratioP2;P2;SDS_P1;SDS_P2;PMS_P1;PMS_P2;Temp;Humidity;BMP_temperature;BMP_pressure;BME280_temperature;BME280_humidity;BME280_pressure;Samples;Min_cycle;Max_cycle;Signal;HPM_P1;HPM_P2
2023/10/08 00:02:39;;;;;;;7.35;3.90;;;;;;;-145.68;66.63;73313.91;10435215;28;20218;-66
2023/10/08 00:07:42;;;;;;;11.93;4.38;;;;;;;-145.68;67.23;73339.91;10434530;28;20716;-65
2023/10/08 00:12:43;;;;;;;12.68;4.45;;;;;;;-145.68;67.32;73315.91;10434502;28;20188;-66
2023/10/08 00:17:45;;;;;;;15.52;4.43;;;;;;;-145.68;67.39;73313.91;10434558;28;20230;-65
2023/10/08 00:22:47;;;;;;;5.47;3.90;;;;;;;-145.68;67.34;73303.91;10434172;28;20223;-65
2023/10/08 00:27:51;;;;;;;8.10;4.47;;;;;;;-145.68;67.35;73307.91;10434012;28;20254;-65
2023/10/08 00:32:51;;;;;;;8.43;3.75;;;;;;;-145.68;67.92;73315.91;10434210;28;20196;-65
2023/10/08 00:37:53;;;;;;;12.55;4.30;;;;;;;-145.68;68.01;73307.91;10434115;28;20208;-65
2023/10/08 00:42:56;;;;;;;9.35;4.05;;;;;;;-145.68;67.97;73311.91;10433441;28;20220;-65
2023/10/08 00:47:57;;;;;;;8.43;4.68;;;;;;;-145.68;68.53;73305.91;10433527;28;20236;-65
2023/10/08 00:53:00;;;;;;;8.98;5.05;;;;;;;-145.68;68.89;73317.91;10434304;28;20192;-66
2023/10/08 00:58:08;;;;;;;13.07;4.50;;;;;;;-145.68;69.36;73311.91;10440724;28;20212;-65
2023/10/08 01:03:19;;;;;;;14.02;4.28;;;;;;;-145.68;69.63;73299.91;10440871;28;20227;-66
2023/10/08 01:08:34;;;;;;;9.60;4.38;;;;;;;-145.68;70.24;73303.91;10437559;28;20231;-65
2023/10/08 01:13:39;;;;;;;11.02;4.53;;;;;;;-145.68;70.39;73293.94;10441047;28;20286;-65
2023/10/08 01:18:47;;;;;;;12.40;5.35;;;;;;;-145.68;72.84;73317.91;10423096;28;20207;-65
2023/10/08 01:23:48;;;;;;;19.08;5.68;;;;;;;-145.68;75.57;73345.88;10440124;28;20279;-65
2023/10/08 01:28:48;;;;;;;14.13;5.10;;;;;;;-145.68;76.61;73333.91;10422049;28;20323;-65
2023/10/08 01:33:50;;;;;;;11.45;5.18;;;;;;;-145.68;77.29;73351.88;10422361;28;20792;-66
2023/10/08 01:38:50;;;;;;;10.75;5.03;;;;;;;-145.68;77.29;73327.91;10439792;28;20575;-66
2023/10/08 01:43:52;;;;;;;11.65;5.30;;;;;;;-145.68;77.13;73337.91;10421964;28;20220;-65
2023/10/08 01:49:08;;;;;;;9.07;4.85;;;;;;;-145.68;76.44;73331.91;10421659;28;20211;-65
2023/10/08 01:54:11;;;;;;;13.48;5.30;;;;;;;-145.68;76.17;73327.91;10438244;28;20256;-65
2023/10/08 01:59:13;;;;;;;9.88;4.82;;;;;;;-145.68;78.31;73351.88;10439091;28;20637;-64
2023/10/08 02:04:16;;;;;;;11.30;5.90;;;;;;;-145.68;80.82;73353.88;10421444;28;20259;-65
2023/10/08 02:09:16;;;;;;;15.80;5.40;;;;;;;-145.68;81.66;73359.88;10437639;28;20204;-65
2023/10/08 02:14:18;;;;;;;11.82;4.75;;;;;;;-145.68;82.88;73357.88;10438821;28;20189;-66
2023/10/08 02:19:21;;;;;;;11.13;5.20;;;;;;;-145.68;82.99;73355.88;10438168;28;20211;-65
2023/10/08 02:24:24;;;;;;;11.38;5.20;;;;;;;-145.68;85.19;73367.88;10437930;28;20232;-65
2023/10/08 02:29:28;;;;;;;17.05;5.97;;;;;;;-145.68;86.39;73373.88;10437897;28;20694;-65
2023/10/08 02:34:30;;;;;;;17.42;5.97;;;;;;;-145.68;87.96;73381.88;10437789;28;20196;-66
2023/10/08 02:39:31;;;;;;;10.85;5.15;;;;;;;-145.68;91.33;73399.84;10437374;28;20220;-66
2023/10/08 02:44:32;;;;;;;6.50;4.75;;;;;;;-145.68;100.00;73545.78;10437438;28;20251;-66
2023/10/08 02:49:33;;;;;;;6.35;4.20;;;;;;;-145.68;100.00;73669.69;10419323;28;20299;-64
2023/10/08 02:54:36;;;;;;;3.35;2.40;;;;;;;-145.68;100.00;73807.63;10419243;28;20198;-64
2023/10/08 02:59:44;;;;;;;1.67;1.58;;;;;;;-145.68;100.00;73923.56;10436360;28;20221;-64
2023/10/08 03:04:46;;;;;;;1.48;1.40;;;;;;;-145.68;100.00;73987.53;10418702;28;20216;-64
2023/10/08 03:09:49;;;;;;;1.60;1.50;;;;;;;-145.68;100.00;74059.50;10418631;28;20211;-64
2023/10/08 03:15:00;;;;;;;1.48;1.48;;;;;;;-145.68;100.00;74071.50;10436229;28;20678;-63
2023/10/08 03:25:20;;;;;;;0.40;0.40;;;;;;;-145.68;100.00;74161.44;10439816;28;20223;-63
2023/10/08 03:30:20;;;;;;;0.32;0.32;;;;;;;-145.68;100.00;74175.44;10423558;28;20232;-63
2023/10/08 03:35:27;;;;;;;0.50;0.47;;;;;;;-145.68;100.00;74203.44;10424020;28;20195;-64
2023/10/08 03:41:07;;;;;;;1.20;0.40;;;;;;;-145.68;100.00;74233.41;10442731;28;20218;-64
2023/10/08 03:45:59;;;;;;;0.50;0.50;;;;;;;-145.68;100.00;74243.41;10438246;28;20231;-64
2023/10/08 03:51:06;;;;;;;0.40;0.40;;;;;;;-145.68;100.00;74257.41;10440762;28;20288;-65
2023/10/08 03:56:06;;;;;;;0.40;0.40;;;;;;;-145.68;100.00;74277.41;10440836;28;20207;-64
2023/10/08 04:01:11;;;;;;;0.50;0.50;;;;;;;-145.68;100.00;74293.41;10440395;28;20215;-64
2023/10/08 04:06:22;;;;;;;0.50;0.50;;;;;;;-145.68;100.00;74311.38;10434030;28;20229;-64
2023/10/08 04:11:30;;;;;;;1.40;0.50;;;;;;;-145.68;100.00;74347.38;10440670;28;20219;-64
2023/10/08 04:16:36;;;;;;;1.33;0.53;;;;;;;-145.68;100.00;74393.34;10440882;28;20646;-64
2023/10/08 04:21:39;;;;;;;0.50;0.50;;;;;;;-145.68;100.00;74419.34;10440862;28;20685;-64
2023/10/08 04:26:40;;;;;;;0.43;0.43;;;;;;;-145.68;100.00;74411.34;10436815;28;20239;-65
2023/10/08 04:31:43;;;;;;;0.50;0.50;;;;;;;-145.68;100.00;74421.34;10445743;28;20231;-64
2023/10/08 04:36:45;;;;;;;0.40;0.40;;;;;;;-145.68;100.00;74447.34;10448549;28;20196;-64
2023/10/08 04:41:46;;;;;;;0.50;0.50;;;;;;;-145.68;100.00;74461.34;10448211;28;20310;-65
2023/10/08 04:46:47;;;;;;;0.70;0.70;;;;;;;-145.68;100.00;74479.31;10448256;28;20302;-62
2023/10/08 04:51:48;;;;;;;0.80;0.63;;;;;;;-145.68;100.00;74489.31;10447735;28;20226;-65
2023/10/08 04:56:49;;;;;;;0.70;0.70;;;;;;;-145.68;100.00;74505.31;10447926;28;20184;-64
2023/10/08 05:02:12;;;;;;;1.63;1.00;;;;;;;-145.68;100.00;74557.28;10447599;28;20599;-64
2023/10/08 05:07:40;;;;;;;4.83;1.40;;;;;;;-145.68;100.00;74605.28;10440156;28;20204;-65
2023/10/08 05:12:50;;;;;;;4.03;2.00;;;;;;;-145.68;100.00;74635.28;10457445;22;20326;-70
2023/10/08 05:23:19;;;;;;;4.00;1.50;;;;;;;-145.68;100.00;74693.25;10447792;28;20224;-69
2023/10/08 05:28:24;;;;;;;7.53;2.77;;;;;;;-145.68;100.00;74677.25;10446676;28;20204;-69
2023/10/08 05:33:25;;;;;;;2.57;1.00;;;;;;;-145.68;100.00;74687.25;10447651;28;20193;-70
2023/10/08 05:48:45;;;;;;;2.33;1.40;;;;;;;-145.68;100.00;74693.25;10445939;28;20220;-70
2023/10/08 05:53:48;;;;;;;3.80;1.00;;;;;;;-145.68;100.00;74711.25;10446579;28;20188;-70
2023/10/08 05:59:00;;;;;;;2.93;1.03;;;;;;;-145.68;100.00;74717.25;10445424;28;20243;-71
2023/10/08 06:04:03;;;;;;;1.20;1.10;;;;;;;-145.68;100.00;74723.25;10444703;28;20616;-70
2023/10/08 06:09:21;;;;;;;1.17;1.07;;;;;;;-145.68;100.00;74723.25;10444982;28;20223;-71
2023/10/08 06:19:41;;;;;;;1.40;1.00;;;;;;;-145.68;100.00;74747.25;10443403;28;20214;-69
2023/10/08 06:24:41;;;;;;;1.10;1.00;;;;;;;-145.68;100.00;74757.22;10445358;28;20723;-69
2023/10/08 06:29:44;;;;;;;1.10;0.83;;;;;;;-145.68;100.00;74755.22;10444221;28;20697;-69
2023/10/08 06:34:44;;;;;;;0.67;0.67;;;;;;;-145.68;100.00;74767.22;10444253;28;20207;-69
2023/10/08 06:39:47;;;;;;;1.50;1.00;;;;;;;-145.68;100.00;74785.22;10443687;28;20290;-69
2023/10/08 06:44:48;;;;;;;1.90;0.90;;;;;;;-145.68;100.00;74799.22;10443681;28;20224;-69
2023/10/08 06:49:48;;;;;;;1.03;0.90;;;;;;;-145.68;100.00;74821.22;10443439;28;20630;-69
2023/10/08 06:54:49;;;;;;;1.53;1.10;;;;;;;-145.68;100.00;74855.22;10442839;28;20543;-70
2023/10/08 06:59:50;;;;;;;2.47;1.23;;;;;;;-145.68;100.00;74855.22;10442856;28;20298;-70
2023/10/08 07:04:51;;;;;;;2.00;1.43;;;;;;;-145.68;100.00;74871.19;10442990;28;20310;-70
2023/10/08 07:09:56;;;;;;;3.53;1.40;;;;;;;-145.68;100.00;74859.22;10442299;28;20256;-69
2023/10/08 07:14:58;;;;;;;1.77;1.30;;;;;;;-145.68;100.00;74865.19;10442103;28;20192;-69
2023/10/08 07:19:58;;;;;;;5.07;1.40;;;;;;;-145.68;100.00;74867.19;10442354;28;20298;-69
2023/10/08 07:24:59;;;;;;;12.50;6.37;;;;;;;-145.68;100.00;74863.22;10442157;28;20334;-69
2023/10/08 07:30:02;;;;;;;2.97;1.80;;;;;;;-145.68;100.00;74885.19;10441985;28;20257;-70
2023/10/08 07:35:51;;;;;;;2.27;1.80;;;;;;;-145.68;100.00;74905.19;10442447;28;20196;-70
2023/10/08 07:40:29;;;;;;;4.00;1.57;;;;;;;-145.68;100.00;74897.19;10432469;28;20231;-70
2023/10/08 07:45:35;;;;;;;11.33;2.97;;;;;;;-145.68;100.00;74881.19;10441740;28;20222;-69
2023/10/08 07:50:40;;;;;;;3.57;2.80;;;;;;;-145.68;100.00;74883.19;10441434;28;20298;-71
2023/10/08 07:55:41;;;;;;;4.60;2.80;;;;;;;-145.68;100.00;74875.19;10441629;28;20728;-71
2023/10/08 08:00:42;;;;;;;5.33;2.70;;;;;;;-145.68;100.00;74883.19;10441510;28;20216;-71
2023/10/08 08:05:44;;;;;;;3.60;2.23;;;;;;;-145.68;100.00;74873.19;10443993;28;20222;-72
2023/10/08 08:10:44;;;;;;;4.17;2.27;;;;;;;-145.68;100.00;74871.19;10449672;28;20243;-71
2023/10/08 08:15:50;;;;;;;4.63;3.00;;;;;;;-145.68;100.00;74857.22;10449611;28;20685;-71
2023/10/08 08:20:51;;;;;;;4.00;2.30;;;;;;;-145.68;100.00;74869.19;10449311;28;20203;-72
2023/10/08 08:26:11;;;;;;;3.03;1.50;;;;;;;-145.68;100.00;74867.19;10449507;28;20224;-71
2023/10/08 08:31:14;;;;;;;4.73;1.90;;;;;;;-145.68;100.00;74837.22;10449069;28;20215;-70
2023/10/08 08:36:14;;;;;;;3.47;2.10;;;;;;;-145.68;100.00;74807.22;10448828;28;20196;-70
2023/10/08 08:41:18;;;;;;;6.23;2.70;;;;;;;-145.68;100.00;74813.22;10448545;28;20208;-70
2023/10/08 08:46:18;;;;;;;5.03;2.07;;;;;;;-145.68;100.00;74789.22;10448623;28;20573;-70
2023/10/08 08:51:20;;;;;;;5.73;2.27;;;;;;;-145.68;100.00;74783.22;10447849;28;20208;-71
2023/10/08 08:56:20;;;;;;;7.47;2.10;;;;;;;-145.68;100.00;74789.22;10447400;28;20228;-69
2023/10/08 09:01:21;;;;;;;4.87;1.93;;;;;;;-145.68;100.00;74781.22;10447898;28;20636;-69
2023/10/08 09:06:21;;;;;;;5.73;3.60;;;;;;;-145.68;100.00;74791.22;10447655;28;20287;-69
2023/10/08 09:11:22;;;;;;;8.73;2.23;;;;;;;-145.68;100.00;74757.22;10447292;28;20806;-70
2023/10/08 09:16:23;;;;;;;4.27;2.17;;;;;;;-145.68;100.00;74761.22;10447037;28;20574;-70
2023/10/08 09:21:23;;;;;;;9.93;2.50;;;;;;;-145.68;100.00;74765.22;10445936;28;20240;-71
2023/10/08 09:26:25;;;;;;;5.43;3.80;;;;;;;-145.68;100.00;74731.25;10447109;28;20252;-70
2023/10/08 09:31:25;;;;;;;6.80;2.67;;;;;;;-145.68;100.00;74667.25;10446740;28;20216;-70
2023/10/08 09:36:31;;;;;;;7.80;2.40;;;;;;;-145.68;100.00;74649.25;10446586;28;21560;-71
2023/10/08 09:41:32;;;;;;;10.23;2.70;;;;;;;-145.68;100.00;74643.28;10446307;28;20334;-71
2023/10/08 09:46:34;;;;;;;8.15;2.70;;;;;;;-145.68;100.00;74613.28;10446265;28;20319;-72
2023/10/08 09:51:38;;;;;;;7.25;2.70;;;;;;;-145.68;100.00;74571.28;10444565;28;20204;-71
2023/10/08 09:56:39;;;;;;;8.98;2.55;;;;;;;-145.68;100.00;74581.28;10440494;28;20560;-73
2023/10/08 10:01:41;;;;;;;12.07;2.67;;;;;;;-145.68;100.00;74601.28;10445544;28;20640;-71
2023/10/08 10:06:43;;;;;;;9.60;3.03;;;;;;;-145.68;100.00;74585.28;10444075;28;20210;-72
2023/10/08 10:11:49;;;;;;;9.10;3.08;;;;;;;-145.68;100.00;74595.28;10445304;28;20290;-72
2023/10/08 10:17:09;;;;;;;7.53;2.53;;;;;;;-145.68;100.00;74629.28;10444784;28;20214;-73
2023/10/08 10:22:11;;;;;;;12.07;3.20;;;;;;;-145.68;100.00;74665.25;10436096;28;20260;-72
2023/10/08 10:27:17;;;;;;;9.43;4.63;;;;;;;-145.68;100.00;74659.25;10443716;28;20227;-72
2023/10/08 10:32:18;;;;;;;10.82;2.75;;;;;;;-145.68;100.00;74623.28;10444891;28;20208;-72
2023/10/08 10:37:19;;;;;;;7.70;3.05;;;;;;;-145.68;100.00;74559.28;10444793;28;20199;-71
2023/10/08 10:42:22;;;;;;;9.63;2.78;;;;;;;-145.68;100.00;74535.31;10444054;28;20216;-71
2023/10/08 10:47:26;;;;;;;8.55;2.47;;;;;;;-145.68;100.00;74599.28;10444314;28;20299;-70
2023/10/08 10:52:51;;;;;;;6.68;2.08;;;;;;;-145.68;100.00;74537.31;10443399;28;20223;-70
2023/10/08 10:57:56;;;;;;;6.53;2.20;;;;;;;-145.68;100.00;74543.31;10443809;28;20211;-70
2023/10/08 11:03:02;;;;;;;8.20;2.83;;;;;;;-145.68;100.00;74477.31;10442358;28;20228;-70
2023/10/08 11:08:06;;;;;;;9.48;3.45;;;;;;;-145.68;100.00;74477.31;10443955;28;20245;-70
2023/10/08 11:13:14;;;;;;;7.38;3.05;;;;;;;-145.68;100.00;74501.31;10441331;28;20607;-70
2023/10/08 11:18:25;;;;;;;8.88;2.90;;;;;;;-145.68;100.00;74501.31;10441403;28;20197;-70
2023/10/08 11:23:35;;;;;;;7.78;2.25;;;;;;;-145.68;99.62;74471.31;10432743;28;20240;-67
2023/10/08 11:28:42;;;;;;;10.35;2.55;;;;;;;-145.68;93.12;74331.38;10442156;28;20207;-69
2023/10/08 11:33:56;;;;;;;10.68;3.78;;;;;;;-145.68;82.54;74215.44;10427227;28;20307;-69
2023/10/08 11:39:04;;;;;;;8.20;2.67;;;;;;;-145.68;72.43;74103.47;10427945;28;20222;-70
2023/10/08 11:44:05;;;;;;;6.43;2.28;;;;;;;-145.68;66.30;73999.53;10415300;28;20629;-71
2023/10/08 11:49:05;;;;;;;10.05;2.22;;;;;;;-145.68;60.71;73951.53;10420114;28;20209;-68
2023/10/08 11:54:06;;;;;;;4.15;2.10;;;;;;;-145.68;57.50;73827.59;10418487;28;20188;-70
2023/10/08 11:59:11;;;;;;;10.10;2.47;;;;;;;-145.68;53.80;73697.69;10440783;28;20763;-70
2023/10/08 12:04:16;;;;;;;5.53;1.95;;;;;;;-145.68;55.94;73915.56;10434403;28;20227;-71
2023/10/08 12:09:16;;;;;;;9.18;2.63;;;;;;;-145.68;55.60;73941.56;10440004;28;20247;-68
2023/10/08 12:14:16;;;;;;;7.72;2.13;;;;;;;-145.68;58.26;74165.44;10436653;28;20268;-70
2023/10/08 12:19:17;;;;;;;9.20;2.35;;;;;;;-145.68;54.55;73909.56;10440928;28;20738;-71
2023/10/08 12:24:17;;;;;;;7.22;2.22;;;;;;;-145.68;54.76;73935.56;10440488;28;20729;-71
2023/10/08 12:29:18;;;;;;;4.78;2.30;;;;;;;-145.68;55.30;73905.56;10440701;28;20227;-68
2023/10/08 12:34:19;;;;;;;6.28;2.15;;;;;;;-145.68;52.74;73791.63;10441004;28;20729;-70
2023/10/08 12:39:25;;;;;;;3.05;1.70;;;;;;;-145.68;47.56;73459.81;10439635;28;20350;-70
2023/10/08 12:44:27;;;;;;;5.90;2.08;;;;;;;-145.68;43.22;73381.88;10432601;28;20217;-70
2023/10/08 12:49:33;;;;;;;4.88;1.88;;;;;;;-145.68;43.29;73441.81;10423680;28;20741;-69
2023/10/08 12:54:45;;;;;;;5.57;1.75;;;;;;;-145.68;43.02;73443.84;10425415;28;20196;-70
2023/10/08 12:59:51;;;;;;;6.50;1.73;;;;;;;-145.68;42.93;73319.91;10433413;28;20223;-71
2023/10/08 13:04:54;;;;;;;10.05;2.10;;;;;;;-145.68;41.95;73365.88;10435438;28;20243;-71
2023/10/08 13:09:55;;;;;;;5.15;1.48;;;;;;;-145.68;40.75;73411.84;10434319;28;20255;-71
2023/10/08 13:14:55;;;;;;;2.35;1.42;;;;;;;-145.68;42.46;73481.81;10440500;28;20582;-68
2023/10/08 13:19:55;;;;;;;5.38;1.80;;;;;;;-145.68;41.70;73311.91;10447911;28;20779;-69
2023/10/08 13:24:56;;;;;;;5.82;1.77;;;;;;;-145.68;40.38;73331.91;10447503;28;20235;-69
2023/10/08 13:29:56;;;;;;;3.88;1.60;;;;;;;-145.68;39.69;73263.94;10447607;28;20277;-69
2023/10/08 13:34:57;;;;;;;5.13;1.63;;;;;;;-145.68;38.07;73221.97;10447159;28;20199;-69
2023/10/08 13:39:58;;;;;;;3.75;1.77;;;;;;;-145.68;38.84;73267.94;10447280;28;20222;-69
2023/10/08 13:44:59;;;;;;;3.53;1.50;;;;;;;-145.68;38.47;73142.03;10446914;28;20212;-68
2023/10/08 13:49:59;;;;;;;4.95;1.63;;;;;;;-145.68;37.74;73060.09;10446642;28;20215;-68
2023/10/08 13:55:00;;;;;;;4.53;1.40;;;;;;;-145.68;37.43;73307.91;10446978;28;20297;-69
2023/10/08 14:00:01;;;;;;;6.20;1.95;;;;;;;-145.68;39.00;73194.00;10445621;28;20290;-68
2023/10/08 14:05:08;;;;;;;4.25;1.58;;;;;;;-145.68;38.57;73245.97;10445071;28;20248;-68
2023/10/08 14:10:16;;;;;;;4.60;1.70;;;;;;;-145.68;37.91;73176.00;10439705;28;20235;-69
2023/10/08 14:15:17;;;;;;;2.83;1.58;;;;;;;-145.68;39.23;73327.91;10445859;28;20180;-70
2023/10/08 14:20:21;;;;;;;4.35;1.95;;;;;;;-145.68;44.57;73713.66;10465238;23;20236;-65
2023/10/08 14:25:24;;;;;;;5.53;2.28;;;;;;;-145.68;47.66;74007.53;10435883;28;20231;-66
2023/10/08 14:30:25;;;;;;;8.10;2.58;;;;;;;-145.68;48.96;73987.53;10444923;28;20720;-65
2023/10/08 14:46:09;;;;;;;6.13;2.53;;;;;;;-145.68;47.63;73923.56;10435867;28;20215;-67
2023/10/08 14:51:19;;;;;;;6.70;2.45;;;;;;;-145.68;50.83;74067.50;10444483;28;20215;-66
2023/10/08 14:56:19;;;;;;;7.10;2.08;;;;;;;-145.68;53.13;74111.47;10444203;28;20677;-65
2023/10/08 15:01:20;;;;;;;5.03;2.10;;;;;;;-145.68;53.84;74149.47;10440224;28;20216;-67
2023/10/08 15:06:20;;;;;;;5.70;2.20;;;;;;;-145.68;56.45;74253.41;10443789;28;20231;-66
2023/10/08 15:11:21;;;;;;;5.03;2.30;;;;;;;-145.68;57.89;74277.41;10443518;28;20212;-66
2023/10/08 15:16:22;;;;;;;6.97;2.20;;;;;;;-145.68;54.81;74137.47;10443198;28;20199;-66
2023/10/08 15:21:24;;;;;;;5.72;2.05;;;;;;;-145.68;56.37;74233.41;10442549;28;20236;-66
2023/10/08 15:26:24;;;;;;;7.00;2.22;;;;;;;-145.68;58.03;74295.41;10443065;28;20224;-65
2023/10/08 15:31:25;;;;;;;5.55;1.98;;;;;;;-145.68;58.35;74291.41;10442636;28;20861;-66
2023/10/08 15:36:26;;;;;;;4.65;1.77;;;;;;;-145.68;64.10;74401.34;10442547;28;21566;-66
2023/10/08 15:41:27;;;;;;;7.20;4.63;;;;;;;-145.68;70.12;74553.28;10428549;28;20262;-66
2023/10/08 15:46:27;;;;;;;6.80;3.20;;;;;;;-145.68;77.05;74611.28;10419779;28;20717;-66
2023/10/08 15:51:34;;;;;;;7.63;3.00;;;;;;;-145.68;81.24;74693.25;10416190;28;20223;-65
2023/10/08 15:56:35;;;;;;;8.52;3.55;;;;;;;-145.68;88.91;74753.22;10415969;28;20189;-66
2023/10/08 16:01:35;;;;;;;3.83;2.23;;;;;;;-145.68;93.78;74741.25;10420032;28;20204;-66
2023/10/08 16:06:35;;;;;;;4.83;2.87;;;;;;;-145.68;100.00;74809.22;10432861;28;20294;-66
2023/10/08 16:11:36;;;;;;;15.67;8.63;;;;;;;-145.68;100.00;74851.22;10421603;28;20216;-66
2023/10/08 16:16:36;;;;;;;9.40;3.70;;;;;;;-145.68;100.00;74865.19;10412335;28;20187;-65
2023/10/08 16:21:39;;;;;;;10.07;4.10;;;;;;;-145.68;100.00;74887.19;10419104;28;20305;-66
2023/10/08 16:26:41;;;;;;;11.10;5.10;;;;;;;-145.68;100.00;74899.19;10438813;28;20239;-66
2023/10/08 16:31:41;;;;;;;8.87;2.70;;;;;;;-145.68;100.00;74897.19;10424284;28;20226;-65
2023/10/08 16:36:45;;;;;;;5.23;2.87;;;;;;;-145.68;100.00;74929.19;10425683;28;20185;-65
2023/10/08 16:41:45;;;;;;;6.20;3.20;;;;;;;-145.68;100.00;74967.19;10447444;28;20589;-65
2023/10/08 16:46:46;;;;;;;6.07;3.10;;;;;;;-145.68;100.00;74985.19;10447815;28;20220;-65
2023/10/08 16:51:47;;;;;;;10.20;4.33;;;;;;;-145.68;100.00;75019.16;10449032;28;20222;-66
2023/10/08 16:56:47;;;;;;;8.27;5.00;;;;;;;-145.68;100.00;75031.16;10449143;28;20199;-67
2023/10/08 17:01:48;;;;;;;8.93;4.20;;;;;;;-145.68;100.00;75039.16;10445132;28;20597;-65
2023/10/08 17:06:49;;;;;;;12.20;5.27;;;;;;;-145.68;100.00;75063.16;10448772;28;20248;-65
2023/10/08 17:11:50;;;;;;;7.53;4.50;;;;;;;-145.68;100.00;75087.16;10447894;28;20302;-65
2023/10/08 17:16:50;;;;;;;10.33;5.63;;;;;;;-145.68;100.00;75099.16;10448064;28;20249;-65
2023/10/08 17:21:51;;;;;;;10.73;5.70;;;;;;;-145.68;100.00;75107.16;10447406;28;20618;-66
2023/10/08 17:26:51;;;;;;;10.37;4.97;;;;;;;-145.68;100.00;75119.16;10428902;28;20232;-66
2023/10/08 17:31:52;;;;;;;7.53;4.83;;;;;;;-145.68;100.00;75103.16;10434193;28;20318;-67
2023/10/08 17:36:53;;;;;;;12.90;5.20;;;;;;;-145.68;100.00;75113.16;10446611;28;20188;-66
2023/10/08 17:41:54;;;;;;;10.50;4.57;;;;;;;-145.68;100.00;75115.16;10447230;28;20239;-65
2023/10/08 17:46:54;;;;;;;6.13;3.97;;;;;;;-145.68;100.00;75123.16;10446527;28;20212;-66
2023/10/08 17:51:54;;;;;;;9.47;4.00;;;;;;;-145.68;100.00;75119.16;10430967;28;20212;-65
2023/10/08 17:56:55;;;;;;;4.00;3.60;;;;;;;-145.68;100.00;75127.16;10418487;28;20198;-65
2023/10/08 18:01:55;;;;;;;8.13;4.10;;;;;;;-145.68;100.00;75111.16;10442219;28;20965;-66
2023/10/08 18:06:55;;;;;;;9.10;4.00;;;;;;;-145.68;100.00;75123.16;10440739;28;20702;-65
2023/10/08 18:11:57;;;;;;;8.90;4.30;;;;;;;-145.68;100.00;75119.16;10445349;28;20298;-66
2023/10/08 18:16:58;;;;;;;13.20;5.70;;;;;;;-145.68;100.00;75123.16;10445782;28;20261;-66
2023/10/08 18:21:59;;;;;;;5.07;3.40;;;;;;;-145.68;100.00;75135.16;10444911;28;20239;-66
2023/10/08 18:27:00;;;;;;;7.53;4.23;;;;;;;-145.68;100.00;75135.16;10445158;28;20223;-66
2023/10/08 18:32:03;;;;;;;7.37;3.80;;;;;;;-145.68;100.00;75115.16;10444874;28;20212;-65
2023/10/08 18:37:04;;;;;;;8.43;3.90;;;;;;;-145.68;100.00;75115.16;10444063;28;20188;-66
2023/10/08 18:42:07;;;;;;;9.17;3.90;;;;;;;-145.68;100.00;75111.16;10431964;28;20231;-64
2023/10/08 18:47:09;;;;;;;7.17;3.80;;;;;;;-145.68;100.00;75099.16;10417575;28;20218;-65
2023/10/08 18:52:10;;;;;;;15.67;4.67;;;;;;;-145.68;100.00;75089.16;10417697;28;20302;-64
2023/10/08 18:57:11;;;;;;;8.90;3.80;;;;;;;-145.68;100.00;75081.16;10415861;28;20573;-66
2023/10/08 19:02:13;;;;;;;8.03;4.67;;;;;;;-145.68;100.00;75075.16;10417905;28;20220;-66
2023/10/08 19:07:14;;;;;;;13.63;4.50;;;;;;;-145.68;100.00;75093.16;10419182;28;20661;-66
2023/10/08 19:12:16;;;;;;;11.10;4.63;;;;;;;-145.68;100.00;75073.16;10437220;28;20216;-66
2023/10/08 19:17:17;;;;;;;6.33;4.40;;;;;;;-145.68;100.00;75079.16;10442733;28;20188;-66
2023/10/08 19:22:17;;;;;;;7.43;4.10;;;;;;;-145.68;100.00;75067.16;10442207;28;20225;-67
2023/10/08 19:27:19;;;;;;;7.07;4.00;;;;;;;-145.68;100.00;75043.16;10442217;28;20220;-66
2023/10/08 19:32:19;;;;;;;13.80;6.43;;;;;;;-145.68;100.00;75009.16;10442261;28;20303;-64
2023/10/08 19:37:19;;;;;;;10.13;3.93;;;;;;;-145.68;100.00;74997.16;10439823;28;20271;-66
2023/10/08 19:42:20;;;;;;;5.60;4.07;;;;;;;-145.68;100.00;74991.16;10442013;28;20347;-65
2023/10/08 19:47:20;;;;;;;7.83;4.63;;;;;;;-145.68;100.00;74983.19;10441732;28;20230;-66
2023/10/08 19:52:22;;;;;;;8.43;4.60;;;;;;;-145.68;100.00;74995.16;10441958;28;20230;-66
2023/10/08 19:57:23;;;;;;;7.70;3.73;;;;;;;-145.68;100.00;74985.19;10441966;28;20192;-65
2023/10/08 20:02:23;;;;;;;12.00;3.90;;;;;;;-145.68;100.00;74999.16;10441406;28;20205;-66
2023/10/08 20:07:24;;;;;;;6.83;4.23;;;;;;;-145.68;100.00;75003.16;10441760;28;20208;-66
2023/10/08 20:12:24;;;;;;;6.83;4.07;;;;;;;-145.68;100.00;74993.16;10441552;28;20220;-67
2023/10/08 20:17:24;;;;;;;5.73;3.73;;;;;;;-145.68;100.00;74975.19;10440321;28;20191;-65
2023/10/08 20:22:26;;;;;;;6.83;3.57;;;;;;;-145.68;100.00;74965.19;10450232;22;20241;-68
2023/10/08 20:27:26;;;;;;;5.20;3.70;;;;;;;-145.68;100.00;74971.19;10396920;28;20236;-68
2023/10/08 20:32:26;;;;;;;5.43;3.83;;;;;;;-145.68;100.00;74983.19;10400639;28;20607;-69
2023/10/08 20:37:27;;;;;;;5.27;4.00;;;;;;;-145.68;100.00;75033.16;10400493;28;20518;-69
2023/10/08 20:42:30;;;;;;;8.97;4.37;;;;;;;-145.68;100.00;75021.16;10400342;28;20578;-69
2023/10/08 20:47:30;;;;;;;5.50;4.07;;;;;;;-145.68;100.00;75015.16;10400432;28;20217;-69
2023/10/08 20:52:31;;;;;;;5.57;3.57;;;;;;;-145.68;100.00;74995.16;10400135;28;20234;-69
2023/10/08 20:57:32;;;;;;;5.57;3.63;;;;;;;-145.68;100.00;74969.19;10400522;28;20189;-69
2023/10/08 21:02:35;;;;;;;7.53;3.20;;;;;;;-145.68;100.00;74953.19;10400148;28;20208;-69
2023/10/08 21:07:38;;;;;;;8.40;3.70;;;;;;;-145.68;100.00;74967.19;10399690;28;20219;-68
2023/10/08 21:12:42;;;;;;;7.10;3.67;;;;;;;-145.68;100.00;74979.19;10403204;28;20220;-67
2023/10/08 21:17:47;;;;;;;9.00;3.53;;;;;;;-145.68;100.00;74959.19;10407664;28;20193;-68
2023/10/08 21:22:50;;;;;;;5.10;3.57;;;;;;;-145.68;100.00;74951.19;10407206;28;20241;-69
2023/10/08 21:27:52;;;;;;;6.53;4.10;;;;;;;-145.68;100.00;74959.19;10406642;28;20259;-67
2023/10/08 21:32:53;;;;;;;8.20;3.73;;;;;;;-145.68;100.00;74945.19;10406613;28;20220;-67
2023/10/08 21:37:53;;;;;;;5.60;3.80;;;;;;;-145.68;100.00;74951.19;10406469;28;20204;-69
2023/10/08 21:42:54;;;;;;;6.27;2.93;;;;;;;-145.68;100.00;74925.19;10406052;28;20221;-68
2023/10/08 21:47:55;;;;;;;7.33;3.20;;;;;;;-145.68;100.00;74909.19;10406296;28;20575;-69
2023/10/08 21:52:55;;;;;;;4.47;2.93;;;;;;;-145.68;100.00;74895.19;10404841;28;20213;-68
2023/10/08 21:57:56;;;;;;;5.20;3.10;;;;;;;-145.68;100.00;74883.19;10405582;28;20212;-68
2023/10/08 22:02:58;;;;;;;3.50;3.13;;;;;;;-145.68;100.00;74897.19;10405169;28;20711;-68
2023/10/08 22:07:59;;;;;;;6.13;3.47;;;;;;;-145.68;100.00;74887.19;10405168;28;20185;-68
2023/10/08 22:13:00;;;;;;;11.27;3.50;;;;;;;-145.68;100.00;74881.19;10405093;28;20208;-69
2023/10/08 22:18:01;;;;;;;6.27;3.00;;;;;;;-145.68;100.00;74871.19;10404523;28;20252;-68
2023/10/08 22:23:14;;;;;;;8.43;3.30;;;;;;;-145.68;100.00;74841.22;10403380;28;20228;-69
2023/10/08 22:28:19;;;;;;;5.93;2.97;;;;;;;-145.68;100.00;74827.22;10401342;28;20197;-69
2023/10/08 22:33:26;;;;;;;4.93;3.20;;;;;;;-145.68;100.00;74815.22;10403883;28;20688;-67
2023/10/08 22:38:28;;;;;;;11.20;3.40;;;;;;;-145.68;100.00;74823.22;10403689;28;20758;-68
2023/10/08 22:43:35;;;;;;;7.90;3.33;;;;;;;-145.68;100.00;74807.22;10403661;28;20306;-68
2023/10/08 22:48:42;;;;;;;7.67;2.97;;;;;;;-145.68;100.00;74823.22;10403822;28;20203;-69
2023/10/08 22:53:43;;;;;;;8.37;3.20;;;;;;;-145.68;100.00;74793.22;10401421;28;20213;-68
2023/10/08 22:58:44;;;;;;;4.43;2.90;;;;;;;-145.68;100.00;74783.22;10403318;28;20604;-68
2023/10/08 23:03:46;;;;;;;4.93;3.10;;;;;;;-145.68;100.00;74767.22;10402603;28;20243;-68
2023/10/08 23:08:47;;;;;;;6.63;4.00;;;;;;;-145.68;100.00;74755.22;10402699;28;20194;-69
2023/10/08 23:13:47;;;;;;;7.60;3.77;;;;;;;-145.68;100.00;74741.25;10402472;28;20208;-69
2023/10/08 23:18:50;;;;;;;5.33;3.33;;;;;;;-145.68;100.00;74719.25;10402094;28;20209;-69